Morrison, TN (37357)

4:11 PM CDT on August 22, 2014 (GMT -0500)
Viola, TN | Change Station
CLOSE
Current Station
Personal Weather Station
Location: Morrison, TN
Elevation: 1053 ft
Nearby Weather Stations
Active Advisory: Special Statement

Elev 1053 ft 35.51 °N, 85.89 °W | Updated 44 seconds ago

Clear
Clear
90.3 °F
Feels Like 108 °F
N
4.5
Wind Variable Wind from NE
Gusts 7.6 mph

Today
High -- | Low -- °F
--% Chance of Precip.
Yesterday
High -- | Low -- °F
Precip. -- in
6:08 AM 7:24 PM
Waning Crescent, 7% visible
Pressure 30.07 in
Visibility 10.0 miles
Clouds Clear
Heat Index 108 °F
Dew Point 80 °F
Humidity 72%
Rainfall 0.00 in
Snow Depth Not available.
UV 6 out of 12
Pollen 9.90 out of 12
Air Quality Not available.
Flu Activity Not available.
METAR KTHA 222055Z AUTO 28006KT 10SM CLR 32/21 A3007 RMK

More Conditions Fewer Conditions

Pressure 30.07 in
Visibility 10.0 miles
Clouds Clear
Heat Index 108 °F
Dew Point 80 °F
Humidity 72%
Rainfall 0.00 in
Snow Depth Not available.
UV 6 out of 12
Pollen 9.90 out of 12
Air Quality Not available.
Flu Activity Not available.
METAR KTHA 222055Z AUTO 28006KT 10SM CLR 32/21 A3007 RMK

More Conditions Fewer Conditions

10-Day Weather Forecast

Almanac

Astronomy

Aug. 22, 2014 Rise Set
Actual Time 6:08 AM CDT 7:24 PM CDT
Civil Twilight 5:41 AM CDT 7:50 PM CDT
Nautical Twilight 5:09 AM CDT 8:22 PM CDT
Astronomical Twilight 4:36 AM CDT 8:55 PM CDT
Moon 3:32 AM CDT 5:30 PM CDT
Length of Visible Light 14h 09m
Length of Day
13h 16m
Tomorrow will be 2m 4s shorter.
Waning Crescent, 7% of the Moon is Illuminated
Today
Waning Crescent
Aug 25
New
Sep 2
First Quarter
Sep 8
Full
Sep 15
Last Quarter

Today's Extremes

State Highs State Lows

Community

WunderPhotos

Upload Photos

1,746,256 photos uploaded!

Nearby

Snow Depth

Station Depth Elevation
No new snow has been reported.

Earthquake Activity

City Distance Mag. Time & Date
No recent earthquake activity has been reported nearby.
Minimum magnitude displayed is 2.5.

Coastal Water Temperatures

Place Temperature
No Stations Reporting

Nearby Weather Stations